createdAt,value
2023-11-22T00:00:14.761Z,5.33
2023-11-22T00:02:41.639Z,5.35
2023-11-22T00:05:08.526Z,5.33
2023-11-22T00:07:35.136Z,5.33
2023-11-22T00:10:02.628Z,5.33
2023-11-22T00:12:29.355Z,5.28
2023-11-22T00:14:55.884Z,5.28
2023-11-22T00:17:23.164Z,5.25
2023-11-22T00:19:49.752Z,5.28
2023-11-22T00:22:16.307Z,5.28
2023-11-22T00:24:43.152Z,5.19
2023-11-22T00:27:11.465Z,5.20
2023-11-22T00:29:38.090Z,5.21
2023-11-22T00:32:05.829Z,5.19
2023-11-22T00:34:32.351Z,5.14
2023-11-22T00:36:58.865Z,5.18
2023-11-22T00:39:25.769Z,5.17
2023-11-22T00:41:52.271Z,5.18
2023-11-22T00:44:19.337Z,5.16
2023-11-22T00:46:46.886Z,5.21
2023-11-22T00:49:14.133Z,5.19
2023-11-22T00:51:40.642Z,5.15
2023-11-22T00:54:07.412Z,5.12
2023-11-22T00:56:33.966Z,5.08
2023-11-22T00:59:01.217Z,5.02
2023-11-22T01:01:27.823Z,5.11
2023-11-22T01:03:54.594Z,5.06
2023-11-22T01:06:21.179Z,5.05
2023-11-22T01:08:49.114Z,5.08
2023-11-22T01:11:15.679Z,5.02
2023-11-22T01:13:43.878Z,5.02
2023-11-22T01:16:11.556Z,5.00
2023-11-22T01:18:40.028Z,4.91
2023-11-22T01:21:07.280Z,5.02
2023-11-22T01:23:34.067Z,5.03
2023-11-22T01:26:01.112Z,5.05
2023-11-22T01:28:28.341Z,5.10
2023-11-22T01:30:55.665Z,5.05
2023-11-22T01:33:25.096Z,4.95
2023-11-22T01:35:51.699Z,4.91
2023-11-22T01:38:18.264Z,4.74
2023-11-22T01:40:48.431Z,4.60
2023-11-22T01:43:16.317Z,4.51
2023-11-22T01:45:42.881Z,4.41
2023-11-22T01:48:11.892Z,4.27
2023-11-22T01:50:43.315Z,4.36
2023-11-22T01:53:13.430Z,4.31
2023-11-22T01:55:44.955Z,4.32
2023-11-22T01:58:12.475Z,4.32
2023-11-22T02:00:59.246Z,4.18
2023-11-22T02:03:26.078Z,4.16
2023-11-22T02:05:53.913Z,4.16
2023-11-22T02:08:20.612Z,4.12
2023-11-22T02:10:50.530Z,4.13
2023-11-22T02:13:17.103Z,4.01
2023-11-22T02:15:43.753Z,3.87
2023-11-22T02:18:13.685Z,3.84
2023-11-22T02:20:42.342Z,3.84
2023-11-22T02:23:13.075Z,3.82
2023-11-22T02:25:40.054Z,3.77
2023-11-22T02:28:09.752Z,3.78
2023-11-22T02:30:37.573Z,3.79
2023-11-22T02:33:06.041Z,3.81
2023-11-22T02:35:33.306Z,3.74
2023-11-22T02:38:00.860Z,3.64
2023-11-22T02:40:28.256Z,3.56
2023-11-22T02:42:55.531Z,3.48
2023-11-22T02:45:26.664Z,3.44
2023-11-22T02:47:53.773Z,3.34
2023-11-22T02:50:20.496Z,3.37
2023-11-22T02:52:47.367Z,3.33
2023-11-22T02:55:14.006Z,3.42
2023-11-22T02:57:41.498Z,3.47
2023-11-22T03:00:09.372Z,3.44
2023-11-22T03:02:36.552Z,3.39
2023-11-22T03:05:03.262Z,3.36
2023-11-22T03:07:30.510Z,3.36
2023-11-22T03:09:57.146Z,3.19
2023-11-22T03:12:24.260Z,3.20
2023-11-22T03:14:50.780Z,3.22
2023-11-22T03:17:17.384Z,3.11
2023-11-22T03:19:45.655Z,3.11
2023-11-22T03:22:12.157Z,3.09
2023-11-22T03:24:39.264Z,3.07
2023-11-22T03:27:07.141Z,3.03
2023-11-22T03:29:34.746Z,2.98
2023-11-22T03:32:01.520Z,3.07
2023-11-22T03:34:28.044Z,3.08
2023-11-22T03:36:54.509Z,3.01
2023-11-22T03:39:21.186Z,2.90
2023-11-22T03:41:47.671Z,2.91
2023-11-22T03:44:14.222Z,2.86
2023-11-22T03:46:41.357Z,2.79
2023-11-22T03:49:08.032Z,2.83
2023-11-22T03:51:34.953Z,2.85
2023-11-22T03:54:01.449Z,2.88
2023-11-22T03:56:28.035Z,2.83
2023-11-22T03:58:54.693Z,2.69
2023-11-22T04:01:21.656Z,2.80
2023-11-22T04:03:52.762Z,2.64
2023-11-22T04:06:20.290Z,2.66
2023-11-22T04:08:47.865Z,2.67
2023-11-22T04:11:14.834Z,2.70
2023-11-22T04:13:41.578Z,2.64
2023-11-22T04:16:09.677Z,2.58
2023-11-22T04:18:37.204Z,2.50
2023-11-22T04:21:05.900Z,2.58
2023-11-22T04:23:36.300Z,2.63
2023-11-22T04:26:03.209Z,2.65
2023-11-22T04:28:33.768Z,2.49
2023-11-22T04:31:00.608Z,2.44
2023-11-22T04:33:29.346Z,2.51
2023-11-22T04:35:56.260Z,2.45
2023-11-22T04:38:23.273Z,2.37
2023-11-22T04:40:49.875Z,2.39
2023-11-22T04:43:16.440Z,2.37
2023-11-22T04:45:43.158Z,2.41
2023-11-22T04:48:10.804Z,2.50
2023-11-22T04:50:37.724Z,2.46
2023-11-22T04:53:04.345Z,2.37
2023-11-22T04:55:30.899Z,2.46
2023-11-22T04:57:57.388Z,2.37
2023-11-22T05:00:26.838Z,2.33
2023-11-22T05:02:53.354Z,2.29
2023-11-22T05:05:20.024Z,2.31
2023-11-22T05:07:46.653Z,2.31
2023-11-22T05:10:13.210Z,2.26
2023-11-22T05:12:39.951Z,2.21
2023-11-22T05:15:07.808Z,2.18
2023-11-22T05:17:34.849Z,2.15
2023-11-22T05:20:01.398Z,2.08
2023-11-22T05:22:28.063Z,2.15
2023-11-22T05:24:54.563Z,2.03
2023-11-22T05:27:21.033Z,2.05
2023-11-22T05:29:53.156Z,2.02
2023-11-22T05:32:22.204Z,1.86
2023-11-22T05:34:49.216Z,1.94
2023-11-22T05:37:15.800Z,1.97
2023-11-22T05:39:42.332Z,1.95
2023-11-22T05:42:08.881Z,1.96
2023-11-22T05:44:35.426Z,1.94
2023-11-22T05:47:01.931Z,1.93
2023-11-22T05:49:28.437Z,1.98
2023-11-22T05:51:55.016Z,1.96
2023-11-22T05:54:21.561Z,1.96
2023-11-22T05:56:48.123Z,1.96
2023-11-22T05:59:14.703Z,1.89
2023-11-22T06:01:41.253Z,1.90
2023-11-22T06:04:10.485Z,1.92
2023-11-22T06:06:37.820Z,1.91
2023-11-22T06:09:06.709Z,1.90
2023-11-22T06:11:33.385Z,1.91
2023-11-22T06:13:59.999Z,1.91
2023-11-22T06:16:26.533Z,1.85
2023-11-22T06:18:52.998Z,1.90
2023-11-22T06:21:20.044Z,1.96
2023-11-22T06:23:46.929Z,1.94
2023-11-22T06:26:13.688Z,1.93
2023-11-22T06:28:40.256Z,1.79
2023-11-22T06:31:06.805Z,1.75
2023-11-22T06:33:33.386Z,1.82
2023-11-22T06:35:59.953Z,1.69
2023-11-22T06:38:26.448Z,1.73
2023-11-22T06:40:53.076Z,1.78
2023-11-22T06:43:19.581Z,1.77
2023-11-22T06:45:46.272Z,1.76
2023-11-22T06:48:13.164Z,1.71
2023-11-22T06:50:40.752Z,1.81
2023-11-22T06:53:07.320Z,1.75
2023-11-22T06:55:34.403Z,1.78
2023-11-22T06:58:00.941Z,1.88
2023-11-22T07:00:28.761Z,1.75
2023-11-22T07:02:55.466Z,1.76
2023-11-22T07:05:22.149Z,1.73
2023-11-22T07:07:50.960Z,1.84
2023-11-22T07:10:17.597Z,1.91
2023-11-22T07:12:44.578Z,1.91
2023-11-22T07:15:11.591Z,1.91
2023-11-22T07:17:38.285Z,1.86
2023-11-22T07:20:09.652Z,1.83
2023-11-22T07:22:37.236Z,1.97
2023-11-22T07:25:03.969Z,1.88
2023-11-22T07:27:30.609Z,1.91
2023-11-22T07:29:57.374Z,1.92
2023-11-22T07:32:24.124Z,1.93
2023-11-22T07:34:50.754Z,1.98
2023-11-22T07:37:19.620Z,1.88
2023-11-22T07:39:46.142Z,1.93
2023-11-22T07:42:12.800Z,1.80
2023-11-22T07:44:39.782Z,1.85
2023-11-22T07:47:10.227Z,1.93
2023-11-22T07:49:40.054Z,1.89
2023-11-22T07:52:07.712Z,1.82
2023-11-22T07:54:34.313Z,1.77
2023-11-22T07:57:00.887Z,1.83
2023-11-22T07:59:27.488Z,1.79
2023-11-22T08:01:54.971Z,1.69
2023-11-22T08:04:21.766Z,1.75
2023-11-22T08:06:48.520Z,1.74
2023-11-22T08:09:17.658Z,1.71
2023-11-22T08:11:44.346Z,1.71
2023-11-22T08:14:10.945Z,1.77
2023-11-22T08:16:39.902Z,1.83
2023-11-22T08:19:06.725Z,1.77
2023-11-22T08:21:33.826Z,1.71
2023-11-22T08:24:01.061Z,1.72
2023-11-22T08:26:27.671Z,1.69
2023-11-22T08:28:56.593Z,1.66
2023-11-22T08:31:23.209Z,1.75
2023-11-22T08:33:49.763Z,1.71
2023-11-22T08:36:16.429Z,1.74
2023-11-22T08:38:44.448Z,1.87
2023-11-22T08:41:15.180Z,1.88
2023-11-22T08:43:42.300Z,1.84
2023-11-22T08:46:14.033Z,1.87
2023-11-22T08:48:42.994Z,1.84
2023-11-22T08:51:11.445Z,1.86
2023-11-22T08:53:38.647Z,1.96
2023-11-22T08:56:10.682Z,1.76
2023-11-22T08:58:41.220Z,1.78
2023-11-22T09:01:08.716Z,1.73
2023-11-22T09:03:35.739Z,1.77
2023-11-22T09:06:03.995Z,1.78
2023-11-22T09:08:31.616Z,1.76
2023-11-22T09:10:58.511Z,1.67
2023-11-22T09:13:25.940Z,1.74
2023-11-22T09:15:52.623Z,1.78
2023-11-22T09:18:19.247Z,1.82
2023-11-22T09:20:46.305Z,1.89
2023-11-22T09:23:15.204Z,1.99
2023-11-22T09:25:42.116Z,2.16
2023-11-22T09:28:10.473Z,2.22
2023-11-22T09:30:39.230Z,2.12
2023-11-22T09:33:08.495Z,2.11
2023-11-22T09:35:36.452Z,2.06
2023-11-22T09:38:04.755Z,1.91
2023-11-22T09:40:33.238Z,2.07
2023-11-22T09:43:01.628Z,2.15
2023-11-22T09:45:28.306Z,2.19
2023-11-22T09:47:56.357Z,2.24
2023-11-22T09:50:43.202Z,2.33
2023-11-22T09:53:20.543Z,2.48
2023-11-22T09:55:47.519Z,2.47
2023-11-22T09:58:14.861Z,2.47
2023-11-22T10:00:42.300Z,2.39
2023-11-22T10:03:13.982Z,2.43
2023-11-22T10:05:42.852Z,2.62
2023-11-22T10:08:11.077Z,2.70
2023-11-22T10:10:38.157Z,2.76
2023-11-22T10:13:04.905Z,2.73
2023-11-22T10:15:32.716Z,2.54
2023-11-22T10:18:01.770Z,2.42
2023-11-22T10:20:36.670Z,2.39
2023-11-22T10:23:03.398Z,2.39
2023-11-22T10:25:30.649Z,2.38
2023-11-22T10:27:57.139Z,2.30
2023-11-22T10:30:23.619Z,2.04
2023-11-22T10:32:50.672Z,1.88
2023-11-22T10:35:17.892Z,2.01
2023-11-22T10:37:47.512Z,1.97
2023-11-22T10:40:14.457Z,1.94
2023-11-22T10:42:47.123Z,2.03
2023-11-22T10:45:14.760Z,2.08
2023-11-22T10:47:44.330Z,2.15
2023-11-22T10:50:13.409Z,2.09
2023-11-22T10:52:43.626Z,2.13
2023-11-22T10:55:13.215Z,2.01
2023-11-22T10:57:51.146Z,1.91
2023-11-22T11:00:23.787Z,1.91
2023-11-22T11:02:55.587Z,2.07
2023-11-22T11:05:29.461Z,1.95
2023-11-22T11:08:12.664Z,1.89
2023-11-22T11:10:43.248Z,1.86
2023-11-22T11:13:10.879Z,2.02
2023-11-22T11:15:41.062Z,1.94
2023-11-22T11:18:11.471Z,1.80
2023-11-22T11:20:48.995Z,1.82
2023-11-22T11:23:15.884Z,1.77
2023-11-22T11:25:43.825Z,1.80
2023-11-22T11:28:13.458Z,1.96
2023-11-22T11:30:41.537Z,1.92
2023-11-22T11:33:08.702Z,1.95
2023-11-22T11:35:48.347Z,1.84
2023-11-22T11:38:16.477Z,1.70
2023-11-22T11:40:43.946Z,1.65
2023-11-22T11:43:14.093Z,1.80
2023-11-22T11:45:46.970Z,1.78
2023-11-22T11:48:18.945Z,1.82
2023-11-22T11:50:47.780Z,1.76
2023-11-22T11:53:14.518Z,1.73
2023-11-22T11:55:41.218Z,1.86
2023-11-22T11:58:10.351Z,1.87
2023-11-22T12:00:41.547Z,1.85
2023-11-22T12:03:11.492Z,1.87
2023-11-22T12:05:39.389Z,1.65
2023-11-22T12:08:06.312Z,1.97
2023-11-22T12:10:33.388Z,2.04
2023-11-22T12:13:00.219Z,2.05
2023-11-22T12:15:27.288Z,2.07
2023-11-22T12:17:57.748Z,2.22
2023-11-22T12:20:27.047Z,2.27
2023-11-22T12:22:54.394Z,2.21
2023-11-22T12:25:22.269Z,2.20
2023-11-22T12:27:50.150Z,2.27
2023-11-22T12:30:30.992Z,2.26
2023-11-22T12:32:57.576Z,2.26
2023-11-22T12:35:24.805Z,2.11
2023-11-22T12:37:51.827Z,2.14
2023-11-22T12:40:21.307Z,2.17
2023-11-22T12:42:51.857Z,2.13
2023-11-22T12:45:22.311Z,2.15
2023-11-22T12:47:49.506Z,2.11
2023-11-22T12:50:32.732Z,2.18
2023-11-22T12:53:00.654Z,2.14
2023-11-22T12:55:27.223Z,2.13
2023-11-22T12:57:59.972Z,2.14
2023-11-22T13:00:26.951Z,2.07
2023-11-22T13:03:02.874Z,2.03
2023-11-22T13:05:30.595Z,2.03
2023-11-22T13:07:58.422Z,2.02
2023-11-22T13:10:28.303Z,1.94
2023-11-22T13:12:56.011Z,1.98
2023-11-22T13:15:27.615Z,2.07
2023-11-22T13:17:56.490Z,1.97
2023-11-22T13:20:24.410Z,2.00
2023-11-22T13:22:51.541Z,2.03
2023-11-22T13:25:20.158Z,2.02
2023-11-22T13:27:50.499Z,1.91
2023-11-22T13:30:23.724Z,1.84
2023-11-22T13:32:51.314Z,1.84
2023-11-22T13:35:18.690Z,1.76
2023-11-22T13:37:46.596Z,1.66
2023-11-22T13:40:18.370Z,1.61
2023-11-22T13:42:53.735Z,1.60
2023-11-22T13:45:21.781Z,1.68
2023-11-22T13:47:51.558Z,1.75
2023-11-22T13:50:23.366Z,1.84
2023-11-22T13:52:50.468Z,1.98
2023-11-22T13:55:20.658Z,2.03
2023-11-22T13:57:47.142Z,1.97
2023-11-22T14:00:19.669Z,1.95
2023-11-22T14:02:47.539Z,1.98
2023-11-22T14:05:14.939Z,1.97
2023-11-22T14:07:41.458Z,2.08
2023-11-22T14:10:08.885Z,2.14
2023-11-22T14:12:36.299Z,2.03
2023-11-22T14:15:07.061Z,2.03
2023-11-22T14:17:33.925Z,1.95
2023-11-22T14:20:00.534Z,1.90
2023-11-22T14:22:28.223Z,1.89
2023-11-22T14:24:54.840Z,1.99
2023-11-22T14:27:21.934Z,2.09
2023-11-22T14:29:50.596Z,1.96
2023-11-22T14:32:19.906Z,1.89
2023-11-22T14:34:46.805Z,1.84
2023-11-22T14:37:14.252Z,1.97
2023-11-22T14:39:41.278Z,1.78
2023-11-22T14:42:08.691Z,1.87
2023-11-22T14:44:36.595Z,1.75
2023-11-22T14:47:20.656Z,1.71
2023-11-22T14:49:47.738Z,1.81
2023-11-22T14:52:14.438Z,1.91
2023-11-22T14:54:41.603Z,1.88
2023-11-22T14:57:10.205Z,1.93
2023-11-22T14:59:38.245Z,1.94
2023-11-22T15:02:08.515Z,1.89
2023-11-22T15:04:37.336Z,1.91
2023-11-22T15:07:07.593Z,1.95
2023-11-22T15:09:34.459Z,1.93
2023-11-22T15:12:05.287Z,1.94
2023-11-22T15:14:33.964Z,1.91
2023-11-22T15:17:05.533Z,1.81
2023-11-22T15:19:32.927Z,1.88
2023-11-22T15:22:00.067Z,1.70
2023-11-22T15:24:27.641Z,1.75
2023-11-22T15:26:54.401Z,1.66
2023-11-22T15:29:21.788Z,1.69
2023-11-22T15:31:48.812Z,1.66
2023-11-22T15:34:15.632Z,1.63
2023-11-22T15:36:42.162Z,1.64
2023-11-22T15:39:13.152Z,1.73
2023-11-22T15:41:40.748Z,1.76
2023-11-22T15:44:07.771Z,1.78
2023-11-22T15:46:35.421Z,1.86
2023-11-22T15:49:02.353Z,1.88
2023-11-22T15:51:28.906Z,1.89
2023-11-22T15:53:55.493Z,1.86
2023-11-22T15:56:22.127Z,1.89
2023-11-22T15:58:48.661Z,1.78
2023-11-22T16:01:15.634Z,1.75
2023-11-22T16:03:43.055Z,1.79
2023-11-22T16:06:10.550Z,1.81
2023-11-22T16:08:37.076Z,1.83
2023-11-22T16:11:03.711Z,1.75
2023-11-22T16:13:30.304Z,1.58
2023-11-22T16:16:00.695Z,1.53
2023-11-22T16:18:27.990Z,1.41
2023-11-22T16:20:59.113Z,1.50
2023-11-22T16:23:26.007Z,1.49
2023-11-22T16:25:53.275Z,1.42
2023-11-22T16:28:19.841Z,1.48
2023-11-22T16:30:46.449Z,1.52
2023-11-22T16:33:16.157Z,1.44
2023-11-22T16:35:42.800Z,1.38
2023-11-22T16:38:09.789Z,1.43
2023-11-22T16:40:37.096Z,1.41
2023-11-22T16:43:05.248Z,1.37
2023-11-22T16:45:31.870Z,1.31
2023-11-22T16:47:58.915Z,1.24
2023-11-22T16:50:25.662Z,1.19
2023-11-22T16:52:56.253Z,1.26
2023-11-22T16:55:23.032Z,1.23
2023-11-22T16:57:49.915Z,1.33
2023-11-22T17:00:19.882Z,1.37
2023-11-22T17:02:51.414Z,1.38
2023-11-22T17:05:22.515Z,1.33
2023-11-22T17:07:49.473Z,1.29
2023-11-22T17:10:16.428Z,1.32
2023-11-22T17:12:43.063Z,1.28
2023-11-22T17:15:10.895Z,1.23
2023-11-22T17:17:38.702Z,1.28
2023-11-22T17:20:06.508Z,1.22
2023-11-22T17:22:33.220Z,1.28
2023-11-22T17:24:59.751Z,1.36
2023-11-22T17:27:26.314Z,1.34
2023-11-22T17:29:54.957Z,1.26
2023-11-22T17:32:22.269Z,1.19
2023-11-22T17:34:48.839Z,1.30
2023-11-22T17:37:15.366Z,1.34
2023-11-22T17:39:42.768Z,1.35
2023-11-22T17:42:09.655Z,1.42
2023-11-22T17:44:36.662Z,1.44
2023-11-22T17:47:03.512Z,1.47
2023-11-22T17:49:30.085Z,1.55
2023-11-22T17:51:56.691Z,1.58
2023-11-22T17:54:23.319Z,1.56
2023-11-22T17:56:49.918Z,1.52
2023-11-22T17:59:16.912Z,1.53
2023-11-22T18:01:43.587Z,1.47
2023-11-22T18:06:39.373Z,1.44
2023-11-22T18:09:05.894Z,1.41
2023-11-22T18:11:32.462Z,1.35
2023-11-22T18:14:02.195Z,1.35
2023-11-22T18:16:28.848Z,1.28
2023-11-22T18:18:55.401Z,1.31
2023-11-22T18:21:22.758Z,1.28
2023-11-22T18:23:49.380Z,1.27
2023-11-22T18:26:15.948Z,1.29
2023-11-22T18:28:42.485Z,1.25
2023-11-22T18:31:09.029Z,1.24
2023-11-22T18:33:35.614Z,0.83
2023-11-22T18:36:02.444Z,1.09
2023-11-22T18:38:29.669Z,1.11
2023-11-22T18:40:58.068Z,1.17
2023-11-22T18:43:24.989Z,1.22
2023-11-22T18:45:52.049Z,1.25
2023-11-22T18:48:18.694Z,1.20
2023-11-22T18:50:45.326Z,1.29
2023-11-22T18:53:11.853Z,1.34
2023-11-22T18:55:38.521Z,1.36
2023-11-22T18:58:05.681Z,1.35
2023-11-22T19:00:32.479Z,1.31
2023-11-22T19:02:59.243Z,1.29
2023-11-22T19:05:25.855Z,1.27
2023-11-22T19:07:52.831Z,1.24
2023-11-22T19:10:19.582Z,1.33
2023-11-22T19:12:46.086Z,1.34
2023-11-22T19:15:12.763Z,1.38
2023-11-22T19:17:39.418Z,1.34
2023-11-22T19:20:06.723Z,1.33
2023-11-22T19:22:33.560Z,1.17
2023-11-22T19:25:00.100Z,1.15
2023-11-22T19:27:28.375Z,1.16
2023-11-22T19:29:54.904Z,1.18
2023-11-22T19:32:21.637Z,1.09
2023-11-22T19:34:48.269Z,1.00
2023-11-22T19:37:14.928Z,1.01
2023-11-22T19:39:42.582Z,0.96
2023-11-22T19:42:09.494Z,0.92
2023-11-22T19:44:36.224Z,0.96
2023-11-22T19:47:02.921Z,0.97
2023-11-22T19:49:29.467Z,0.94
2023-11-22T19:51:55.986Z,0.96
2023-11-22T19:54:22.834Z,0.93
2023-11-22T19:56:49.612Z,0.97
2023-11-22T19:59:16.586Z,0.90
2023-11-22T20:01:45.851Z,0.94
2023-11-22T20:04:14.288Z,0.97
2023-11-22T20:06:41.011Z,0.90
2023-11-22T20:09:07.673Z,0.93
2023-11-22T20:11:35.319Z,0.89
2023-11-22T20:14:01.956Z,0.91
2023-11-22T20:16:28.488Z,0.92
2023-11-22T20:18:55.039Z,0.97
2023-11-22T20:21:21.510Z,0.97
2023-11-22T20:23:48.145Z,1.08
2023-11-22T20:26:14.770Z,1.17
2023-11-22T20:28:41.474Z,1.25
2023-11-22T20:31:10.636Z,1.12
2023-11-22T20:33:38.282Z,1.19
2023-11-22T20:36:05.576Z,1.20
2023-11-22T20:38:32.525Z,1.25
2023-11-22T20:40:59.099Z,1.32
2023-11-22T20:43:25.617Z,1.24
2023-11-22T20:45:53.078Z,1.16
2023-11-22T20:48:19.839Z,1.24
2023-11-22T20:50:46.497Z,1.24
2023-11-22T20:53:15.898Z,1.23
2023-11-22T20:55:42.488Z,1.24
2023-11-22T20:58:08.986Z,1.28
2023-11-22T21:00:35.466Z,1.12
2023-11-22T21:03:02.075Z,1.21
2023-11-22T21:05:28.875Z,1.24
2023-11-22T21:07:57.787Z,1.32
2023-11-22T21:10:24.517Z,1.26
2023-11-22T21:12:51.001Z,1.29
2023-11-22T21:15:17.690Z,1.25
2023-11-22T21:17:44.511Z,1.19
2023-11-22T21:20:14.264Z,1.16
2023-11-22T21:22:40.952Z,1.19
2023-11-22T21:25:09.604Z,1.21
2023-11-22T21:27:36.536Z,1.28
2023-11-22T21:30:03.730Z,1.28
2023-11-22T21:32:30.350Z,1.30
2023-11-22T21:34:56.908Z,1.26
2023-11-22T21:37:24.344Z,1.27
2023-11-22T21:39:51.811Z,1.33
2023-11-22T21:42:18.420Z,1.27
2023-11-22T21:44:45.196Z,1.27
2023-11-22T21:47:11.838Z,1.30
2023-11-22T21:49:39.002Z,1.31
2023-11-22T21:52:06.298Z,1.35
2023-11-22T21:54:35.918Z,1.29
2023-11-22T21:57:02.500Z,1.26
2023-11-22T21:59:29.141Z,1.24
2023-11-22T22:01:55.837Z,1.26
2023-11-22T22:04:23.062Z,1.20
2023-11-22T22:06:49.663Z,1.18
2023-11-22T22:09:16.256Z,1.15
2023-11-22T22:11:43.474Z,1.09
2023-11-22T22:14:10.839Z,1.07
2023-11-22T22:16:37.677Z,1.04
2023-11-22T22:19:04.981Z,1.00
2023-11-22T22:21:31.691Z,0.99
2023-11-22T22:23:58.424Z,1.16
2023-11-22T22:26:24.977Z,1.24
2023-11-22T22:28:51.469Z,1.22
2023-11-22T22:31:18.016Z,1.19
2023-11-22T22:33:44.703Z,1.21
2023-11-22T22:36:19.057Z,1.22
2023-11-22T22:38:46.468Z,1.24
2023-11-22T22:41:20.392Z,1.26
2023-11-22T22:43:46.936Z,1.20
2023-11-22T22:46:13.948Z,1.16
2023-11-22T22:48:40.963Z,1.20
2023-11-22T22:51:13.846Z,1.20
2023-11-22T22:53:41.908Z,1.16
2023-11-22T22:56:08.810Z,1.25
2023-11-22T22:58:36.454Z,1.26
2023-11-22T23:01:03.526Z,1.24
2023-11-22T23:03:33.014Z,1.16
2023-11-22T23:05:59.757Z,1.22
2023-11-22T23:08:27.200Z,1.22
2023-11-22T23:10:54.169Z,1.27
2023-11-22T23:13:20.654Z,1.27
2023-11-22T23:15:47.170Z,1.24
2023-11-22T23:18:13.790Z,1.15
2023-11-22T23:20:48.615Z,1.14
2023-11-22T23:23:17.885Z,1.24
2023-11-22T23:25:44.677Z,1.32
2023-11-22T23:28:11.221Z,1.28
2023-11-22T23:30:37.825Z,1.24
2023-11-22T23:33:04.486Z,1.33
2023-11-22T23:35:31.010Z,1.25
2023-11-22T23:37:59.371Z,1.17
2023-11-22T23:40:26.472Z,1.23
2023-11-22T23:42:56.807Z,1.18
2023-11-22T23:45:24.314Z,1.15
2023-11-22T23:47:51.921Z,1.09
2023-11-22T23:50:19.301Z,1.17
2023-11-22T23:52:46.894Z,1.17
2023-11-22T23:55:13.479Z,1.21
2023-11-22T23:57:41.882Z,1.26
